Clarington, PA

11:34 PM EDT on July 23, 2014 (GMT -0400)
Penn Oaks Campground (KPALEEPE2) Elev 1621 ft | 41.37 °N, 79.29 °W | Change Station

Current weather conditions updated 4 seconds ago

Overcast
Overcast
63.1 °F
Feels Like 63.1 °F
N
0.0
Wind Variable Wind from SSW
Gusts 0.0 mph

Tomorrow is forecast to be Cooler than today.

Today
High -- | Low -- °F
--% Chance of Precip.
Yesterday
High -- | Low -- °F
Precip. -- in
6:03 AM 8:42 PM
Waning Crescent, 7% visible
Pressure 29.95 in
Visibility 10.0 miles
Clouds Clear
Dew Point 61 °F
Humidity 93%
Rainfall 0.00 in
Snow Depth Not available.
UV 0 out of 12
Pollen 5.80 out of 12
Air Quality Not available.
Flu Activity Not available.
METAR KDUJ 240256Z AUTO 31004KT 10SM CLR 18/16 A2999 RMK AO2 SLP142 T01830161 50005

More Conditions Fewer Conditions

Pressure 29.95 in
Visibility 10.0 miles
Clouds Clear
Dew Point 61 °F
Humidity 93%
Rainfall 0.00 in
Snow Depth Not available.
UV 0 out of 12
Pollen 5.80 out of 12
Air Quality Not available.
Flu Activity Not available.
METAR KDUJ 240256Z AUTO 31004KT 10SM CLR 18/16 A2999 RMK AO2 SLP142 T01830161 50005

More Conditions Fewer Conditions

10-Day Weather Forecast

Almanac

Astronomy

Jul. 23, 2014 Rise Set
Actual Time 6:03 AM EDT 8:42 PM EDT
Civil Twilight 5:31 AM EDT 9:14 PM EDT
Nautical Twilight 4:51 AM EDT 9:54 PM EDT
Astronomical Twilight 4:05 AM EDT 10:39 PM EDT
Moon 3:21 AM EDT (7/23) 6:09 PM EDT (7/23)
Length of Visible Light 15h 43m
Length of Day
14h 39m
Tomorrow will be 1m 48s shorter.
Waning Crescent, 7% of the Moon is Illuminated
Today
Waning Crescent
Jul 26
New
Aug 3
First Quarter
Aug 10
Full
Aug 17
Last Quarter

Today's Extremes

State Highs State Lows

Community

WunderPhotos

Upload Photos

1,736,890 photos uploaded!

Nearby

Snow Depth

Station Depth Elevation
No new snow has been reported.

Earthquake Activity

City Distance Mag. Time & Date
No recent earthquake activity has been reported nearby.
Minimum magnitude displayed is 2.5.

Coastal Water Temperatures

Place Temperature
No Stations Reporting

Nearby Weather Stations

Station Location Temp. Dew Point Humidity Wind Precip. Elev Updated Type
Penn Oaks Campground, Leeper, PA 63.1 °F 61 °F 93% SSW  at  0.0 mph 0.00 in / hr 1621 ft 11:34 PM EDT Rapid Fire
Brookville, PA, Brookville, PA 63.7 °F 62 °F 94% WSW  at  0.0 mph 0.00 in / hr 1453 ft 11:34 PM EDT Rapid Fire
Heathville Road, Summerville, PA 65.3 °F 62 °F 90% NNW  at  1.6 mph 0.00 in / hr 1217 ft 11:34 PM EDT Rapid Fire
Clarion Oaks Golf Course, Clarion, PA 62.6 °F 61 °F 94% West  at  6.0 mph 0.00 in / hr 1503 ft 11:30 PM EDT Normal
Valley Overview, Brookville, PA 62.8 °F 61 °F 93% SE  at  0.0 mph 0.00 in / hr 1608 ft 11:34 PM EDT Rapid Fire
Piney Dam, Clarion, PA 63.0 °F 61 °F 94% North  at  0.0 mph 0.00 in / hr 1354 ft 11:25 PM EDT Rapid Fire
Holly Terrace, Falls Creek, PA 63.5 °F 62 °F 95% WNW  at  7.0 mph 0.00 in / hr 1473 ft 11:34 PM EDT Rapid Fire

Show More Stations Show Fewer Stations